Terminal Aerodrome Forecast
Issued by NWS

Home | Current Version | Previous Version | Text Only | Print | Product List | Glossary On
Versions: 1 2 3 4 5 6 7 8 9 10 11 12 13 14 15 16 17 18
000
FTUS43 KDMX 260630 AAA
TAFFOD
TAF AMD
KFOD 260630Z 2607/2706 32006KT 2SM BR VCSH OVC003
      TEMPO 2608/2612 1SM -DZ BR
     FM261200 32009KT 3SM BR OVC011
     FM261400 32009KT P6SM OVC015
     FM262100 31010KT P6SM BKN040=

USA.gov is the U.S. government's official web portal to all federal, state and local government web resources and services.